sensor_id;sensor_type;location;lat;lon;timestamp;temperature;humidity
4548;DHT22;2286;51.570;7.090;2023-06-24T00:01:21;17.50;6.20
4548;DHT22;2286;51.570;7.090;2023-06-24T00:03:48;17.50;36.30
4548;DHT22;2286;51.570;7.090;2023-06-24T00:06:18;17.50;99.90
4548;DHT22;2286;51.570;7.090;2023-06-24T00:08:47;17.40;99.90
4548;DHT22;2286;51.570;7.090;2023-06-24T00:11:14;17.40;99.90
4548;DHT22;2286;51.570;7.090;2023-06-24T00:13:41;17.40;99.90
4548;DHT22;2286;51.570;7.090;2023-06-24T00:16:09;17.30;99.90
4548;DHT22;2286;51.570;7.090;2023-06-24T00:18:37;17.30;99.90
4548;DHT22;2286;51.570;7.090;2023-06-24T00:21:06;17.30;99.90
4548;DHT22;2286;51.570;7.090;2023-06-24T00:23:33;17.30;99.90
4548;DHT22;2286;51.570;7.090;2023-06-24T00:26:02;17.10;99.90
4548;DHT22;2286;51.570;7.090;2023-06-24T00:28:28;17.10;99.90
4548;DHT22;2286;51.570;7.090;2023-06-24T00:30:55;17.10;99.90
4548;DHT22;2286;51.570;7.090;2023-06-24T00:33:22;17.10;99.90
4548;DHT22;2286;51.570;7.090;2023-06-24T00:35:49;17.00;99.90
4548;DHT22;2286;51.570;7.090;2023-06-24T00:38:16;17.00;99.90
4548;DHT22;2286;51.570;7.090;2023-06-24T00:40:42;16.90;99.90
4548;DHT22;2286;51.570;7.090;2023-06-24T00:43:13;16.90;99.90
4548;DHT22;2286;51.570;7.090;2023-06-24T00:45:39;16.80;99.90
4548;DHT22;2286;51.570;7.090;2023-06-24T00:48:07;16.80;99.90
4548;DHT22;2286;51.570;7.090;2023-06-24T00:50:33;16.80;99.90
4548;DHT22;2286;51.570;7.090;2023-06-24T00:53:02;16.80;99.90
4548;DHT22;2286;51.570;7.090;2023-06-24T00:55:29;16.80;99.90
4548;DHT22;2286;51.570;7.090;2023-06-24T00:57:56;16.80;99.90
4548;DHT22;2286;51.570;7.090;2023-06-24T01:00:26;16.70;99.90
4548;DHT22;2286;51.570;7.090;2023-06-24T01:02:53;16.70;99.90
4548;DHT22;2286;51.570;7.090;2023-06-24T01:05:21;16.70;99.90
4548;DHT22;2286;51.570;7.090;2023-06-24T01:07:49;16.60;99.90
4548;DHT22;2286;51.570;7.090;2023-06-24T01:10:20;16.50;1.00
4548;DHT22;2286;51.570;7.090;2023-06-24T01:12:49;16.50;1.00
4548;DHT22;2286;51.570;7.090;2023-06-24T01:15:17;16.50;1.00
4548;DHT22;2286;51.570;7.090;2023-06-24T01:17:51;16.50;1.00
4548;DHT22;2286;51.570;7.090;2023-06-24T01:20:23;16.50;1.00
4548;DHT22;2286;51.570;7.090;2023-06-24T01:23:11;16.50;1.00
4548;DHT22;2286;51.570;7.090;2023-06-24T01:25:52;16.50;1.00
4548;DHT22;2286;51.570;7.090;2023-06-24T01:28:39;16.50;1.00
4548;DHT22;2286;51.570;7.090;2023-06-24T01:31:38;16.40;1.00
4548;DHT22;2286;51.570;7.090;2023-06-24T01:34:12;16.40;1.00
4548;DHT22;2286;51.570;7.090;2023-06-24T01:39:27;16.30;1.00
4548;DHT22;2286;51.570;7.090;2023-06-24T01:42:07;16.30;1.00
4548;DHT22;2286;51.570;7.090;2023-06-24T01:44:35;16.30;1.00
4548;DHT22;2286;51.570;7.090;2023-06-24T01:47:05;16.30;1.00
4548;DHT22;2286;51.570;7.090;2023-06-24T01:49:33;16.30;1.00
4548;DHT22;2286;51.570;7.090;2023-06-24T01:52:04;16.30;1.00
4548;DHT22;2286;51.570;7.090;2023-06-24T01:54:32;16.20;1.00
4548;DHT22;2286;51.570;7.090;2023-06-24T01:57:02;16.20;1.00
4548;DHT22;2286;51.570;7.090;2023-06-24T01:59:30;16.20;1.00
4548;DHT22;2286;51.570;7.090;2023-06-24T02:01:59;16.20;1.00
4548;DHT22;2286;51.570;7.090;2023-06-24T02:04:29;16.10;1.00
4548;DHT22;2286;51.570;7.090;2023-06-24T02:06:58;16.10;1.00
4548;DHT22;2286;51.570;7.090;2023-06-24T02:09:26;16.10;1.00
4548;DHT22;2286;51.570;7.090;2023-06-24T02:11:56;16.00;1.00
4548;DHT22;2286;51.570;7.090;2023-06-24T02:14:25;16.00;1.00
4548;DHT22;2286;51.570;7.090;2023-06-24T02:16:53;16.00;1.00
4548;DHT22;2286;51.570;7.090;2023-06-24T02:19:24;16.00;1.00
4548;DHT22;2286;51.570;7.090;2023-06-24T02:21:54;16.00;1.00
4548;DHT22;2286;51.570;7.090;2023-06-24T02:24:23;16.00;1.00
4548;DHT22;2286;51.570;7.090;2023-06-24T02:26:52;15.90;1.00
4548;DHT22;2286;51.570;7.090;2023-06-24T02:29:20;15.90;1.00
4548;DHT22;2286;51.570;7.090;2023-06-24T02:31:48;15.90;23.80
4548;DHT22;2286;51.570;7.090;2023-06-24T02:34:15;15.90;83.50
4548;DHT22;2286;51.570;7.090;2023-06-24T02:36:42;15.90;99.90
4548;DHT22;2286;51.570;7.090;2023-06-24T02:39:10;15.90;99.90
4548;DHT22;2286;51.570;7.090;2023-06-24T02:41:37;15.90;99.90
4548;DHT22;2286;51.570;7.090;2023-06-24T02:44:04;15.90;60.10
4548;DHT22;2286;51.570;7.090;2023-06-24T02:46:32;15.90;86.00
4548;DHT22;2286;51.570;7.090;2023-06-24T02:49:00;15.80;99.90
4548;DHT22;2286;51.570;7.090;2023-06-24T02:51:28;15.80;99.90
4548;DHT22;2286;51.570;7.090;2023-06-24T02:53:56;15.80;99.90
4548;DHT22;2286;51.570;7.090;2023-06-24T02:56:26;15.80;99.90
4548;DHT22;2286;51.570;7.090;2023-06-24T02:58:54;15.90;99.90
4548;DHT22;2286;51.570;7.090;2023-06-24T03:01:21;15.80;99.90
4548;DHT22;2286;51.570;7.090;2023-06-24T03:03:51;15.80;99.90
4548;DHT22;2286;51.570;7.090;2023-06-24T03:06:19;15.80;99.90
4548;DHT22;2286;51.570;7.090;2023-06-24T03:08:47;15.80;99.90
4548;DHT22;2286;51.570;7.090;2023-06-24T03:11:15;15.80;99.90
4548;DHT22;2286;51.570;7.090;2023-06-24T03:13:43;15.80;99.90
4548;DHT22;2286;51.570;7.090;2023-06-24T03:16:11;15.70;99.90
4548;DHT22;2286;51.570;7.090;2023-06-24T03:18:40;15.80;99.90
4548;DHT22;2286;51.570;7.090;2023-06-24T03:21:07;15.70;99.90
4548;DHT22;2286;51.570;7.090;2023-06-24T03:23:34;15.80;99.90
4548;DHT22;2286;51.570;7.090;2023-06-24T03:26:01;15.80;99.90
4548;DHT22;2286;51.570;7.090;2023-06-24T03:28:29;15.80;99.90
4548;DHT22;2286;51.570;7.090;2023-06-24T03:30:57;15.90;99.90
4548;DHT22;2286;51.570;7.090;2023-06-24T03:33:24;16.00;99.90
4548;DHT22;2286;51.570;7.090;2023-06-24T03:35:52;16.00;99.90
4548;DHT22;2286;51.570;7.090;2023-06-24T03:38:19;16.10;99.90
4548;DHT22;2286;51.570;7.090;2023-06-24T03:40:46;16.20;99.90
4548;DHT22;2286;51.570;7.090;2023-06-24T03:43:13;16.20;99.90
4548;DHT22;2286;51.570;7.090;2023-06-24T03:45:40;16.20;99.90
4548;DHT22;2286;51.570;7.090;2023-06-24T03:48:08;16.20;99.90
4548;DHT22;2286;51.570;7.090;2023-06-24T03:50:34;16.20;99.90
4548;DHT22;2286;51.570;7.090;2023-06-24T03:53:02;16.20;99.90
4548;DHT22;2286;51.570;7.090;2023-06-24T03:55:28;16.20;99.90
4548;DHT22;2286;51.570;7.090;2023-06-24T03:57:55;16.30;99.90
4548;DHT22;2286;51.570;7.090;2023-06-24T04:00:22;16.30;99.90
4548;DHT22;2286;51.570;7.090;2023-06-24T04:02:49;16.40;99.90
4548;DHT22;2286;51.570;7.090;2023-06-24T04:05:19;16.50;99.90
4548;DHT22;2286;51.570;7.090;2023-06-24T04:07:46;16.50;99.90
4548;DHT22;2286;51.570;7.090;2023-06-24T04:10:13;16.60;89.10
4548;DHT22;2286;51.570;7.090;2023-06-24T04:12:40;16.60;58.20
4548;DHT22;2286;51.570;7.090;2023-06-24T04:15:08;16.60;83.70
4548;DHT22;2286;51.570;7.090;2023-06-24T04:17:35;16.70;62.60
4548;DHT22;2286;51.570;7.090;2023-06-24T04:20:02;16.80;30.30
4548;DHT22;2286;51.570;7.090;2023-06-24T04:22:32;16.90;1.00
4548;DHT22;2286;51.570;7.090;2023-06-24T04:24:59;17.00;1.00
4548;DHT22;2286;51.570;7.090;2023-06-24T04:27:26;17.10;1.00
4548;DHT22;2286;51.570;7.090;2023-06-24T04:29:53;17.10;1.00
4548;DHT22;2286;51.570;7.090;2023-06-24T04:32:19;17.20;1.00
4548;DHT22;2286;51.570;7.090;2023-06-24T04:34:46;17.20;1.00
4548;DHT22;2286;51.570;7.090;2023-06-24T04:37:13;17.30;1.00
4548;DHT22;2286;51.570;7.090;2023-06-24T04:39:42;17.30;1.00
4548;DHT22;2286;51.570;7.090;2023-06-24T04:42:09;17.40;1.00
4548;DHT22;2286;51.570;7.090;2023-06-24T04:44:36;17.60;1.00
4548;DHT22;2286;51.570;7.090;2023-06-24T04:47:03;17.70;1.00
4548;DHT22;2286;51.570;7.090;2023-06-24T04:49:30;17.80;1.00
4548;DHT22;2286;51.570;7.090;2023-06-24T04:51:59;17.90;1.00
4548;DHT22;2286;51.570;7.090;2023-06-24T04:54:26;17.90;99.90
4548;DHT22;2286;51.570;7.090;2023-06-24T04:56:54;18.00;99.90
4548;DHT22;2286;51.570;7.090;2023-06-24T04:59:22;18.10;99.90
4548;DHT22;2286;51.570;7.090;2023-06-24T05:01:49;18.00;99.90
4548;DHT22;2286;51.570;7.090;2023-06-24T05:04:16;18.00;99.90
4548;DHT22;2286;51.570;7.090;2023-06-24T05:06:43;18.10;99.90
4548;DHT22;2286;51.570;7.090;2023-06-24T05:09:10;18.00;99.90
4548;DHT22;2286;51.570;7.090;2023-06-24T05:11:39;18.00;99.90
4548;DHT22;2286;51.570;7.090;2023-06-24T05:14:07;18.00;99.90
4548;DHT22;2286;51.570;7.090;2023-06-24T05:16:34;18.10;99.90
4548;DHT22;2286;51.570;7.090;2023-06-24T05:19:01;18.20;1.00
4548;DHT22;2286;51.570;7.090;2023-06-24T05:21:27;18.40;98.40
4548;DHT22;2286;51.570;7.090;2023-06-24T05:23:55;18.50;1.00
4548;DHT22;2286;51.570;7.090;2023-06-24T05:26:21;18.60;99.90
4548;DHT22;2286;51.570;7.090;2023-06-24T05:28:48;18.80;99.90
4548;DHT22;2286;51.570;7.090;2023-06-24T05:31:16;18.80;99.90
4548;DHT22;2286;51.570;7.090;2023-06-24T05:33:43;18.90;99.90
4548;DHT22;2286;51.570;7.090;2023-06-24T05:36:10;18.90;99.90
4548;DHT22;2286;51.570;7.090;2023-06-24T05:38:37;19.00;99.90
4548;DHT22;2286;51.570;7.090;2023-06-24T05:41:04;19.10;99.90
4548;DHT22;2286;51.570;7.090;2023-06-24T05:43:30;19.20;99.90
4548;DHT22;2286;51.570;7.090;2023-06-24T05:45:57;19.40;96.00
4548;DHT22;2286;51.570;7.090;2023-06-24T05:48:25;19.60;1.00
4548;DHT22;2286;51.570;7.090;2023-06-24T05:50:52;19.80;1.00
4548;DHT22;2286;51.570;7.090;2023-06-24T05:53:19;20.00;1.00
4548;DHT22;2286;51.570;7.090;2023-06-24T05:55:46;20.10;1.00
4548;DHT22;2286;51.570;7.090;2023-06-24T05:58:13;20.20;1.00
4548;DHT22;2286;51.570;7.090;2023-06-24T06:00:40;20.20;1.00
4548;DHT22;2286;51.570;7.090;2023-06-24T06:03:07;20.20;99.90
4548;DHT22;2286;51.570;7.090;2023-06-24T06:05:36;20.30;1.00
4548;DHT22;2286;51.570;7.090;2023-06-24T06:08:03;20.30;99.90
4548;DHT22;2286;51.570;7.090;2023-06-24T06:10:30;20.40;1.00
4548;DHT22;2286;51.570;7.090;2023-06-24T06:12:57;20.50;1.00
4548;DHT22;2286;51.570;7.090;2023-06-24T06:15:24;20.70;99.90
4548;DHT22;2286;51.570;7.090;2023-06-24T06:17:51;20.80;99.90
4548;DHT22;2286;51.570;7.090;2023-06-24T06:20:18;21.00;99.90
4548;DHT22;2286;51.570;7.090;2023-06-24T06:22:46;21.10;20.20
4548;DHT22;2286;51.570;7.090;2023-06-24T06:25:13;21.30;1.00
4548;DHT22;2286;51.570;7.090;2023-06-24T06:27:40;21.40;1.00
4548;DHT22;2286;51.570;7.090;2023-06-24T06:30:07;21.60;1.00
4548;DHT22;2286;51.570;7.090;2023-06-24T06:32:34;21.60;1.00
4548;DHT22;2286;51.570;7.090;2023-06-24T06:35:01;21.60;1.00
4548;DHT22;2286;51.570;7.090;2023-06-24T06:37:28;21.70;1.00
4548;DHT22;2286;51.570;7.090;2023-06-24T06:39:56;21.70;1.00
4548;DHT22;2286;51.570;7.090;2023-06-24T06:42:23;21.90;1.00
4548;DHT22;2286;51.570;7.090;2023-06-24T06:44:50;21.90;1.00
4548;DHT22;2286;51.570;7.090;2023-06-24T06:47:17;21.80;1.00
4548;DHT22;2286;51.570;7.090;2023-06-24T06:49:43;21.70;1.00
4548;DHT22;2286;51.570;7.090;2023-06-24T06:52:10;21.70;1.00
4548;DHT22;2286;51.570;7.090;2023-06-24T06:54:37;21.60;1.00
4548;DHT22;2286;51.570;7.090;2023-06-24T06:57:06;21.60;1.00
4548;DHT22;2286;51.570;7.090;2023-06-24T06:59:32;21.60;1.00
4548;DHT22;2286;51.570;7.090;2023-06-24T07:01:59;21.70;1.00
4548;DHT22;2286;51.570;7.090;2023-06-24T07:04:26;21.80;1.00
4548;DHT22;2286;51.570;7.090;2023-06-24T07:06:53;21.90;1.00
4548;DHT22;2286;51.570;7.090;2023-06-24T07:09:20;22.00;1.00
4548;DHT22;2286;51.570;7.090;2023-06-24T07:11:46;22.20;1.00
4548;DHT22;2286;51.570;7.090;2023-06-24T07:14:14;22.20;1.00
4548;DHT22;2286;51.570;7.090;2023-06-24T07:16:41;22.30;1.00
4548;DHT22;2286;51.570;7.090;2023-06-24T07:19:08;22.30;1.00
4548;DHT22;2286;51.570;7.090;2023-06-24T07:21:35;22.40;1.00
4548;DHT22;2286;51.570;7.090;2023-06-24T07:24:02;22.40;1.00
4548;DHT22;2286;51.570;7.090;2023-06-24T07:26:28;22.40;1.00
4548;DHT22;2286;51.570;7.090;2023-06-24T07:28:56;22.50;1.00
4548;DHT22;2286;51.570;7.090;2023-06-24T07:31:25;22.50;1.00
4548;DHT22;2286;51.570;7.090;2023-06-24T07:33:52;22.70;1.00
4548;DHT22;2286;51.570;7.090;2023-06-24T07:36:19;22.60;1.00
4548;DHT22;2286;51.570;7.090;2023-06-24T07:38:45;22.70;1.00
4548;DHT22;2286;51.570;7.090;2023-06-24T07:41:12;22.70;1.00
4548;DHT22;2286;51.570;7.090;2023-06-24T07:43:39;22.80;1.00
4548;DHT22;2286;51.570;7.090;2023-06-24T07:46:06;22.80;1.00
4548;DHT22;2286;51.570;7.090;2023-06-24T07:48:34;22.90;1.00
4548;DHT22;2286;51.570;7.090;2023-06-24T07:51:01;23.00;1.00
4548;DHT22;2286;51.570;7.090;2023-06-24T07:53:28;23.00;1.00
4548;DHT22;2286;51.570;7.090;2023-06-24T07:55:55;23.00;1.00
4548;DHT22;2286;51.570;7.090;2023-06-24T07:58:21;22.80;1.00
4548;DHT22;2286;51.570;7.090;2023-06-24T08:00:48;22.80;1.00
4548;DHT22;2286;51.570;7.090;2023-06-24T08:03:15;22.90;1.00
4548;DHT22;2286;51.570;7.090;2023-06-24T08:05:43;23.00;99.90
4548;DHT22;2286;51.570;7.090;2023-06-24T08:08:10;23.00;99.90
4548;DHT22;2286;51.570;7.090;2023-06-24T08:10:37;23.00;1.00
4548;DHT22;2286;51.570;7.090;2023-06-24T08:13:04;23.10;1.00
4548;DHT22;2286;51.570;7.090;2023-06-24T08:15:31;23.20;1.00
4548;DHT22;2286;51.570;7.090;2023-06-24T08:17:57;23.20;99.90
4548;DHT22;2286;51.570;7.090;2023-06-24T08:20:25;23.20;99.90
4548;DHT22;2286;51.570;7.090;2023-06-24T08:22:53;23.30;99.90
4548;DHT22;2286;51.570;7.090;2023-06-24T08:25:38;23.40;99.90
4548;DHT22;2286;51.570;7.090;2023-06-24T08:31:08;23.50;99.90
4548;DHT22;2286;51.570;7.090;2023-06-24T08:33:35;23.70;99.90
4548;DHT22;2286;51.570;7.090;2023-06-24T08:36:02;23.90;99.90
4548;DHT22;2286;51.570;7.090;2023-06-24T08:38:30;24.00;99.90
4548;DHT22;2286;51.570;7.090;2023-06-24T08:40:57;23.90;99.90
4548;DHT22;2286;51.570;7.090;2023-06-24T08:43:25;23.90;99.90
4548;DHT22;2286;51.570;7.090;2023-06-24T08:45:52;23.90;99.90
4548;DHT22;2286;51.570;7.090;2023-06-24T08:48:20;23.80;99.90
4548;DHT22;2286;51.570;7.090;2023-06-24T08:50:51;23.70;99.90
4548;DHT22;2286;51.570;7.090;2023-06-24T08:53:20;23.90;99.90
4548;DHT22;2286;51.570;7.090;2023-06-24T08:55:53;24.20;99.90
4548;DHT22;2286;51.570;7.090;2023-06-24T08:58:25;24.30;99.90
4548;DHT22;2286;51.570;7.090;2023-06-24T09:00:52;24.40;99.90
4548;DHT22;2286;51.570;7.090;2023-06-24T09:03:19;24.30;99.90
4548;DHT22;2286;51.570;7.090;2023-06-24T09:05:46;24.30;99.90
4548;DHT22;2286;51.570;7.090;2023-06-24T09:08:13;24.20;99.90
4548;DHT22;2286;51.570;7.090;2023-06-24T09:10:41;24.30;99.90
4548;DHT22;2286;51.570;7.090;2023-06-24T09:13:09;24.50;99.90
4548;DHT22;2286;51.570;7.090;2023-06-24T09:15:37;24.50;99.90
4548;DHT22;2286;51.570;7.090;2023-06-24T09:18:05;24.60;99.90
4548;DHT22;2286;51.570;7.090;2023-06-24T09:20:33;24.70;99.90
4548;DHT22;2286;51.570;7.090;2023-06-24T09:23:05;24.70;99.90
4548;DHT22;2286;51.570;7.090;2023-06-24T09:25:31;24.60;99.90
4548;DHT22;2286;51.570;7.090;2023-06-24T09:27:59;24.70;99.90
4548;DHT22;2286;51.570;7.090;2023-06-24T09:30:28;24.90;99.90
4548;DHT22;2286;51.570;7.090;2023-06-24T09:32:55;25.10;99.90
4548;DHT22;2286;51.570;7.090;2023-06-24T09:35:23;25.10;99.90
4548;DHT22;2286;51.570;7.090;2023-06-24T09:37:51;25.10;99.90
4548;DHT22;2286;51.570;7.090;2023-06-24T09:40:18;25.10;99.90
4548;DHT22;2286;51.570;7.090;2023-06-24T09:42:52;25.10;99.90
4548;DHT22;2286;51.570;7.090;2023-06-24T09:45:23;25.20;99.30
4548;DHT22;2286;51.570;7.090;2023-06-24T09:47:52;25.20;99.00
4548;DHT22;2286;51.570;7.090;2023-06-24T09:50:19;25.30;99.90
4548;DHT22;2286;51.570;7.090;2023-06-24T09:52:48;25.50;98.80
4548;DHT22;2286;51.570;7.090;2023-06-24T09:55:17;25.60;99.00
4548;DHT22;2286;51.570;7.090;2023-06-24T09:57:46;25.70;98.50
4548;DHT22;2286;51.570;7.090;2023-06-24T10:00:14;25.90;96.20
4548;DHT22;2286;51.570;7.090;2023-06-24T10:02:42;25.80;93.10
4548;DHT22;2286;51.570;7.090;2023-06-24T10:05:12;25.70;91.50
4548;DHT22;2286;51.570;7.090;2023-06-24T10:07:40;25.70;92.30
4548;DHT22;2286;51.570;7.090;2023-06-24T10:10:08;25.70;93.00
4548;DHT22;2286;51.570;7.090;2023-06-24T10:12:36;25.90;93.80
4548;DHT22;2286;51.570;7.090;2023-06-24T10:15:04;25.90;92.50
4548;DHT22;2286;51.570;7.090;2023-06-24T10:17:31;26.20;92.60
4548;DHT22;2286;51.570;7.090;2023-06-24T10:19:58;26.50;90.60
4548;DHT22;2286;51.570;7.090;2023-06-24T10:22:31;26.60;90.20
4548;DHT22;2286;51.570;7.090;2023-06-24T10:25:00;26.60;86.00
4548;DHT22;2286;51.570;7.090;2023-06-24T10:27:27;26.70;86.80
4548;DHT22;2286;51.570;7.090;2023-06-24T10:30:02;26.70;85.90
4548;DHT22;2286;51.570;7.090;2023-06-24T10:32:40;27.20;88.60
4548;DHT22;2286;51.570;7.090;2023-06-24T10:35:21;27.30;87.60
4548;DHT22;2286;51.570;7.090;2023-06-24T10:37:55;27.60;87.90
4548;DHT22;2286;51.570;7.090;2023-06-24T10:40:36;28.30;89.60
4548;DHT22;2286;51.570;7.090;2023-06-24T10:43:25;28.80;91.00
4548;DHT22;2286;51.570;7.090;2023-06-24T10:45:52;28.80;89.80
4548;DHT22;2286;51.570;7.090;2023-06-24T10:48:20;29.40;91.30
4548;DHT22;2286;51.570;7.090;2023-06-24T10:50:47;30.40;91.60
4548;DHT22;2286;51.570;7.090;2023-06-24T10:53:16;30.70;92.30
4548;DHT22;2286;51.570;7.090;2023-06-24T10:55:45;31.00;90.00
4548;DHT22;2286;51.570;7.090;2023-06-24T10:58:14;30.80;80.10
4548;DHT22;2286;51.570;7.090;2023-06-24T11:00:41;30.70;77.90
4548;DHT22;2286;51.570;7.090;2023-06-24T11:03:10;31.60;81.20
4548;DHT22;2286;51.570;7.090;2023-06-24T11:05:40;32.20;84.40
4548;DHT22;2286;51.570;7.090;2023-06-24T11:08:07;33.20;86.40
4548;DHT22;2286;51.570;7.090;2023-06-24T11:10:43;33.90;87.10
4548;DHT22;2286;51.570;7.090;2023-06-24T11:13:11;34.20;88.70
4548;DHT22;2286;51.570;7.090;2023-06-24T11:15:38;33.90;85.10
4548;DHT22;2286;51.570;7.090;2023-06-24T11:18:08;34.20;87.30
4548;DHT22;2286;51.570;7.090;2023-06-24T11:20:36;34.80;88.70
4548;DHT22;2286;51.570;7.090;2023-06-24T11:23:06;34.90;87.20
4548;DHT22;2286;51.570;7.090;2023-06-24T11:25:38;36.50;92.50
4548;DHT22;2286;51.570;7.090;2023-06-24T11:28:12;36.90;92.50
4548;DHT22;2286;51.570;7.090;2023-06-24T11:30:39;36.70;91.40
4548;DHT22;2286;51.570;7.090;2023-06-24T11:33:06;36.60;88.20
4548;DHT22;2286;51.570;7.090;2023-06-24T11:35:33;36.90;87.70
4548;DHT22;2286;51.570;7.090;2023-06-24T11:38:02;36.80;85.50
4548;DHT22;2286;51.570;7.090;2023-06-24T11:40:31;36.40;80.50
4548;DHT22;2286;51.570;7.090;2023-06-24T11:43:00;36.30;77.70
4548;DHT22;2286;51.570;7.090;2023-06-24T11:45:29;36.80;80.10
4548;DHT22;2286;51.570;7.090;2023-06-24T11:48:02;36.50;73.50
4548;DHT22;2286;51.570;7.090;2023-06-24T11:50:31;36.00;68.60
4548;DHT22;2286;51.570;7.090;2023-06-24T11:52:58;36.30;70.10
4548;DHT22;2286;51.570;7.090;2023-06-24T11:55:26;37.40;74.80
4548;DHT22;2286;51.570;7.090;2023-06-24T11:57:55;38.20;77.40
4548;DHT22;2286;51.570;7.090;2023-06-24T12:00:23;38.60;79.00
4548;DHT22;2286;51.570;7.090;2023-06-24T12:02:52;35.70;58.40
4548;DHT22;2286;51.570;7.090;2023-06-24T12:05:21;36.40;64.00
4548;DHT22;2286;51.570;7.090;2023-06-24T12:07:57;37.50;70.00
4548;DHT22;2286;51.570;7.090;2023-06-24T12:10:25;36.10;59.00
4548;DHT22;2286;51.570;7.090;2023-06-24T12:12:52;36.20;58.90
4548;DHT22;2286;51.570;7.090;2023-06-24T12:15:19;36.00;58.00
4548;DHT22;2286;51.570;7.090;2023-06-24T12:17:46;36.10;57.00
4548;DHT22;2286;51.570;7.090;2023-06-24T12:20:14;35.90;55.20
4548;DHT22;2286;51.570;7.090;2023-06-24T12:22:43;36.00;54.90
4548;DHT22;2286;51.570;7.090;2023-06-24T12:25:10;35.70;54.70
4548;DHT22;2286;51.570;7.090;2023-06-24T12:27:38;37.00;57.70
4548;DHT22;2286;51.570;7.090;2023-06-24T12:30:06;37.70;58.60
4548;DHT22;2286;51.570;7.090;2023-06-24T12:32:33;38.70;64.80
4548;DHT22;2286;51.570;7.090;2023-06-24T12:35:00;39.60;68.50
4548;DHT22;2286;51.570;7.090;2023-06-24T12:37:30;39.60;65.60
4548;DHT22;2286;51.570;7.090;2023-06-24T12:39:58;39.40;62.70
4548;DHT22;2286;51.570;7.090;2023-06-24T12:42:25;39.30;85.90
4548;DHT22;2286;51.570;7.090;2023-06-24T12:44:52;39.70;63.10
4548;DHT22;2286;51.570;7.090;2023-06-24T12:47:19;40.20;65.70
4548;DHT22;2286;51.570;7.090;2023-06-24T12:49:46;40.90;69.70
4548;DHT22;2286;51.570;7.090;2023-06-24T12:52:13;40.60;63.70
4548;DHT22;2286;51.570;7.090;2023-06-24T12:54:42;40.80;63.70
4548;DHT22;2286;51.570;7.090;2023-06-24T12:57:09;39.80;57.60
4548;DHT22;2286;51.570;7.090;2023-06-24T12:59:36;39.30;54.50
4548;DHT22;2286;51.570;7.090;2023-06-24T13:02:03;39.70;57.90
4548;DHT22;2286;51.570;7.090;2023-06-24T13:04:30;40.50;59.60
4548;DHT22;2286;51.570;7.090;2023-06-24T13:06:57;39.70;54.90
4548;DHT22;2286;51.570;7.090;2023-06-24T13:09:24;38.40;49.40
4548;DHT22;2286;51.570;7.090;2023-06-24T13:11:52;37.70;46.60
4548;DHT22;2286;51.570;7.090;2023-06-24T13:14:19;39.10;53.30
4548;DHT22;2286;51.570;7.090;2023-06-24T13:16:46;40.60;58.30
4548;DHT22;2286;51.570;7.090;2023-06-24T13:19:13;40.10;55.50
4548;DHT22;2286;51.570;7.090;2023-06-24T13:21:40;40.90;58.60
4548;DHT22;2286;51.570;7.090;2023-06-24T13:24:07;41.80;61.30
4548;DHT22;2286;51.570;7.090;2023-06-24T13:26:34;42.00;61.20
4548;DHT22;2286;51.570;7.090;2023-06-24T13:29:03;41.70;59.20
4548;DHT22;2286;51.570;7.090;2023-06-24T13:31:30;41.50;58.40
4548;DHT22;2286;51.570;7.090;2023-06-24T13:33:56;42.50;65.10
4548;DHT22;2286;51.570;7.090;2023-06-24T13:36:31;43.10;66.00
4548;DHT22;2286;51.570;7.090;2023-06-24T13:39:01;44.20;71.20
4548;DHT22;2286;51.570;7.090;2023-06-24T13:41:28;43.30;65.70
4548;DHT22;2286;51.570;7.090;2023-06-24T13:43:58;41.10;52.60
4548;DHT22;2286;51.570;7.090;2023-06-24T13:46:27;40.50;52.70
4548;DHT22;2286;51.570;7.090;2023-06-24T13:48:54;41.20;55.10
4548;DHT22;2286;51.570;7.090;2023-06-24T13:51:22;41.70;56.80
4548;DHT22;2286;51.570;7.090;2023-06-24T13:53:50;43.50;65.50
4548;DHT22;2286;51.570;7.090;2023-06-24T13:56:18;43.90;64.90
4548;DHT22;2286;51.570;7.090;2023-06-24T13:58:45;42.70;58.80
4548;DHT22;2286;51.570;7.090;2023-06-24T14:01:12;43.10;62.70
4548;DHT22;2286;51.570;7.090;2023-06-24T14:03:41;43.60;63.50
4548;DHT22;2286;51.570;7.090;2023-06-24T14:06:08;43.90;64.30
4548;DHT22;2286;51.570;7.090;2023-06-24T14:08:35;44.30;65.70
4548;DHT22;2286;51.570;7.090;2023-06-24T14:11:03;41.80;51.30
4548;DHT22;2286;51.570;7.090;2023-06-24T14:13:29;42.30;54.90
4548;DHT22;2286;51.570;7.090;2023-06-24T14:15:56;43.20;59.20
4548;DHT22;2286;51.570;7.090;2023-06-24T14:18:23;43.30;57.10
4548;DHT22;2286;51.570;7.090;2023-06-24T14:20:52;43.60;58.00
4548;DHT22;2286;51.570;7.090;2023-06-24T14:23:19;42.60;52.80
4548;DHT22;2286;51.570;7.090;2023-06-24T14:25:45;42.70;55.80
4548;DHT22;2286;51.570;7.090;2023-06-24T14:28:13;43.30;56.70
4548;DHT22;2286;51.570;7.090;2023-06-24T14:30:40;44.10;58.70
4548;DHT22;2286;51.570;7.090;2023-06-24T14:33:07;43.90;57.30
4548;DHT22;2286;51.570;7.090;2023-06-24T14:35:34;43.20;55.10
4548;DHT22;2286;51.570;7.090;2023-06-24T14:38:02;41.60;48.90
4548;DHT22;2286;51.570;7.090;2023-06-24T14:40:29;41.70;49.70
4548;DHT22;2286;51.570;7.090;2023-06-24T14:42:56;41.80;50.50
4548;DHT22;2286;51.570;7.090;2023-06-24T14:45:23;42.60;52.20
4548;DHT22;2286;51.570;7.090;2023-06-24T14:47:50;43.00;53.40
4548;DHT22;2286;51.570;7.090;2023-06-24T14:50:17;44.40;59.50
4548;DHT22;2286;51.570;7.090;2023-06-24T14:52:44;44.90;59.00
4548;DHT22;2286;51.570;7.090;2023-06-24T14:55:12;45.20;59.80
4548;DHT22;2286;51.570;7.090;2023-06-24T14:57:39;44.90;58.50
4548;DHT22;2286;51.570;7.090;2023-06-24T15:00:07;45.60;61.90
4548;DHT22;2286;51.570;7.090;2023-06-24T15:02:34;44.40;54.10
4548;DHT22;2286;51.570;7.090;2023-06-24T15:05:02;42.40;46.70
4548;DHT22;2286;51.570;7.090;2023-06-24T15:07:29;43.80;53.50
4548;DHT22;2286;51.570;7.090;2023-06-24T15:09:56;43.80;52.60
4548;DHT22;2286;51.570;7.090;2023-06-24T15:12:24;43.50;51.30
4548;DHT22;2286;51.570;7.090;2023-06-24T15:14:51;44.50;54.80
4548;DHT22;2286;51.570;7.090;2023-06-24T15:17:18;44.30;55.20
4548;DHT22;2286;51.570;7.090;2023-06-24T15:19:45;45.80;59.10
4548;DHT22;2286;51.570;7.090;2023-06-24T15:22:12;46.20;59.70
4548;DHT22;2286;51.570;7.090;2023-06-24T15:24:39;45.90;59.10
4548;DHT22;2286;51.570;7.090;2023-06-24T15:27:06;45.90;57.80
4548;DHT22;2286;51.570;7.090;2023-06-24T15:29:34;45.70;57.60
4548;DHT22;2286;51.570;7.090;2023-06-24T15:32:01;45.60;56.90
4548;DHT22;2286;51.570;7.090;2023-06-24T15:34:28;45.80;56.20
4548;DHT22;2286;51.570;7.090;2023-06-24T15:36:55;46.00;56.80
4548;DHT22;2286;51.570;7.090;2023-06-24T15:39:22;46.10;56.10
4548;DHT22;2286;51.570;7.090;2023-06-24T15:41:49;44.60;49.80
4548;DHT22;2286;51.570;7.090;2023-06-24T15:44:16;44.40;49.70
4548;DHT22;2286;51.570;7.090;2023-06-24T15:46:45;44.10;48.10
4548;DHT22;2286;51.570;7.090;2023-06-24T15:49:13;44.70;50.20
4548;DHT22;2286;51.570;7.090;2023-06-24T15:51:40;45.40;52.90
4548;DHT22;2286;51.570;7.090;2023-06-24T15:54:07;45.30;51.00
4548;DHT22;2286;51.570;7.090;2023-06-24T15:56:34;44.80;50.10
4548;DHT22;2286;51.570;7.090;2023-06-24T15:59:01;45.60;51.30
4548;DHT22;2286;51.570;7.090;2023-06-24T16:01:28;44.80;47.50
4548;DHT22;2286;51.570;7.090;2023-06-24T16:03:57;44.80;49.10
4548;DHT22;2286;51.570;7.090;2023-06-24T16:06:24;44.80;47.90
4548;DHT22;2286;51.570;7.090;2023-06-24T16:08:51;45.40;51.70
4548;DHT22;2286;51.570;7.090;2023-06-24T16:11:18;45.80;52.10
4548;DHT22;2286;51.570;7.090;2023-06-24T16:13:44;45.80;52.80
4548;DHT22;2286;51.570;7.090;2023-06-24T16:16:11;46.10;53.30